Latest Weather Observations for Gayndah

IDQ60801

Issued at 5:32 pm EST Saturday 5 September 2015 (issued every 30 minutes, with the page automatically refreshed every 10 minutes)

About weather observations | Map of weather stations | Latest weather observations for QLD | Other Formats
Station Details ID: 039066 Name: GAYNDAH AIRPORT Lat: -25.62 Lon: 151.62 Height: 110.9 m
Data from the previous 72 hours. | See also: Recent months at Gayndah
Date/Time
EST
Temp
°C
App
Temp
°C
Dew
Point
Rel
Hum
%
Delta-T
°C
Wind Press
QNH
hPa
Press
MSL
hPa
Rain
since 9 am
mm
Dir
 
Spd
km/h
Gust
km/h
Spd
kts
Gust
kts
05/05:30pm 23.3 22.5 6.6 34 8.6 CALM 0 0 0 0 1018.2 1017.9 0.0
05/05:00pm 24.9 23.4 5.2 28 10.0 SW 2 6 1 3 1017.8 1017.5 0.0
05/04:30pm 25.1 23.7 5.3 28 10.1 SW 2 6 1 3 1017.7 1017.4 0.0
05/04:00pm 25.5 23.5 6.2 29 10.0 W 6 6 3 3 1017.6 1017.3 0.0
05/03:30pm 25.1 23.4 5.8 29 9.9 SW 4 6 2 3 1017.5 1017.2 0.0
05/03:00pm 25.0 22.8 6.2 30 9.7 SSW 7 9 4 5 1017.5 1017.2 0.0
05/02:30pm 25.0 22.5 6.7 31 9.6 SSE 9 15 5 8 1017.7 1017.4 0.0
05/02:00pm 25.7 24.4 7.8 32 9.6 E 4 7 2 4 1017.9 1017.6 0.0
05/01:30pm 24.7 22.8 6.9 32 9.3 SSW 6 11 3 6 1018.3 1018.0 0.0
05/01:00pm 24.5 22.8 7.6 34 8.9 SW 6 9 3 5 1018.6 1018.3 0.0
05/12:30pm 23.5 22.0 9.1 40 7.8 S 7 15 4 8 1019.2 1018.9 0.0
05/12:00pm 24.5 23.4 8.5 36 8.6 E 4 9 2 5 1019.8 1019.5 0.0
05/11:30am 23.1 21.8 9.1 41 7.6 SE 6 11 3 6 1020.4 1020.1 0.0
05/11:00am 23.1 22.7 11.2 47 6.6 ENE 4 6 2 3 1021.0 1020.7 0.0
05/10:30am 22.2 21.2 11.0 49 6.2 ENE 7 13 4 7 1021.4 1021.1 0.0
05/10:00am 21.3 20.1 11.6 54 5.4 NE 9 13 5 7 1021.8 1021.5 0.0
05/09:30am 20.2 19.6 11.7 58 4.7 E 6 11 3 6 1022.0 1021.7 0.0
05/09:00am 18.6 18.7 11.4 63 3.9 SSE 2 6 1 3 1022.2 1021.9 0.0
05/08:30am 16.3 16.7 11.2 72 2.8 CALM 0 4 0 2 1022.3 1022.0 0.0
05/08:00am 14.7 14.8 10.3 75 2.3 CALM 0 0 0 0 1022.1 1021.8 0.0
05/07:30am 13.1 13.1 9.7 80 1.7 CALM 0 2 0 1 1022.0 1021.7 0.0
05/07:00am 11.4 11.4 9.8 90 0.8 CALM 0 0 0 0 1021.8 1021.5 0.0
05/06:30am 10.2 9.6 9.1 93 0.5 SSW 2 4 1 2 1021.4 1021.1 0.0
05/06:00am 10.2 10.0 9.0 92 0.6 CALM 0 0 0 0 1021.2 1020.9 0.0
05/05:30am 10.2 10.0 9.0 92 0.6 CALM 0 2 0 1 1020.8 1020.5 0.0
05/05:00am 10.0 9.4 8.9 93 0.5 SSW 2 4 1 2 1020.5 1020.2 0.0
05/04:30am 9.6 9.3 8.5 93 0.5 CALM 0 0 0 0 1020.0 1019.7 0.0
05/04:00am 10.2 9.6 9.0 92 0.6 SSW 2 4 1 2 1019.8 1019.5 0.0
05/03:30am 10.2 9.2 8.8 91 0.7 SSW 4 6 2 3 1019.6 1019.3 0.0
05/03:00am 9.9 9.2 8.7 92 0.6 SSW 2 4 1 2 1019.6 1019.3 0.0
05/02:30am 9.7 9.4 8.6 93 0.5 CALM 0 0 0 0 1019.7 1019.4 0.0
05/02:00am 10.2 9.9 8.5 89 0.8 CALM 0 0 0 0 1019.9 1019.6 0.0
05/01:30am 10.5 10.2 8.6 88 0.9 CALM 0 0 0 0 1020.0 1019.7 0.0
05/01:00am 10.9 10.6 8.5 85 1.2 CALM 0 0 0 0 1020.2 1019.9 0.0
05/12:30am 11.1 10.7 8.3 83 1.4 CALM 0 0 0 0 1020.5 1020.2 0.0
05/12:00am 11.4 11.1 8.6 83 1.4 CALM 0 0 0 0 1020.6 1020.3 0.0
 
Date/Time
EST
Temp
°C
App
Temp
°C
Dew
Point
Rel
Hum
%
Delta-T
°C
Wind Press
QNH
hPa
Press
MSL
hPa
Rain
since 9 am
mm
Dir
 
Spd
km/h
Gust
km/h
Spd
kts
Gust
kts
04/11:30pm 11.2 10.5 8.6 84 1.3 SE 2 6 1 3 1020.7 1020.4 0.0
04/11:00pm 11.8 11.5 8.5 80 1.6 CALM 0 0 0 0 1020.7 1020.4 0.0
04/10:30pm 12.3 11.2 8.6 78 1.8 SSE 4 6 2 3 1020.9 1020.6 0.0
04/10:00pm 12.9 12.6 8.8 76 2.1 CALM 0 0 0 0 1020.9 1020.6 0.0
04/09:30pm 13.3 13.0 8.6 73 2.4 CALM 0 0 0 0 1020.5 1020.2 0.0
04/09:00pm 13.9 13.8 9.3 74 2.4 CALM 0 0 0 0 1020.2 1019.9 0.0
04/08:30pm 14.3 13.4 9.3 72 2.6 NE 4 6 2 3 1019.9 1019.6 0.0
04/08:00pm 15.8 14.3 8.5 62 3.7 NE 6 7 3 4 1019.5 1019.2 0.0
04/07:30pm 16.2 15.4 8.2 59 4.1 N 2 6 1 3 1019.0 1018.7 0.0
04/07:00pm 16.4 14.8 7.9 57 4.3 ESE 6 9 3 5 1018.4 1018.1 0.0
04/06:30pm 17.5 16.9 7.5 52 5.1 CALM 0 0 0 0 1017.7 1017.4 0.0
04/06:00pm 19.3 17.7 6.4 43 6.5 NNW 4 4 2 2 1017.3 1017.0 0.0
04/05:30pm 22.4 20.4 6.2 35 8.3 E 6 7 3 4 1017.2 1016.9 0.0
04/05:00pm 23.6 21.1 4.0 28 9.7 SE 6 7 3 4 1016.9 1016.6 0.0
04/04:30pm 24.3 22.9 3.6 26 10.2 CALM 0 6 0 3 1016.6 1016.3 0.0
04/04:00pm 24.4 22.0 4.2 27 10.0 S 6 7 3 4 1016.3 1016.0 0.0
04/03:30pm 24.8 21.7 5.6 29 9.8 SW 11 19 6 10 1016.3 1016.0 0.0
04/03:00pm 24.4 21.9 4.7 28 9.9 NE 7 11 4 6 1016.1 1015.8 0.0
04/02:30pm 23.8 20.6 5.2 30 9.4 W 11 19 6 10 1016.2 1015.9 0.0
04/02:00pm 23.4 19.8 4.9 30 9.3 SW 13 19 7 10 1016.5 1016.2 0.0
04/01:30pm 23.0 20.1 4.5 30 9.2 SW 9 17 5 9 1016.9 1016.6 0.0
04/01:00pm 22.9 20.8 5.8 33 8.7 S 6 17 3 9 1017.2 1016.9 0.0
04/12:30pm 21.8 18.2 4.8 33 8.4 SW 13 20 7 11 1017.7 1017.4 0.0
04/12:00pm 21.2 17.2 5.1 35 8.0 SW 15 24 8 13 1018.4 1018.1 0.0
04/11:30am 21.1 16.9 5.5 36 7.8 SW 17 26 9 14 1018.8 1018.5 0.0
04/11:00am 20.6 15.6 6.5 40 7.1 SSW 22 32 12 17 1019.2 1018.9 0.0
04/10:30am 20.4 15.8 6.7 41 7.0 SW 20 30 11 16 1019.8 1019.5 0.0
04/10:00am 18.7 14.1 6.5 45 6.1 SSW 20 28 11 15 1019.8 1019.5 0.0
04/09:30am 17.5 13.6 7.0 50 5.3 SW 17 26 9 14 1020.3 1020.0 0.0
04/09:00am 16.4 11.4 6.5 52 4.9 SSW 22 32 12 17 1020.3 1020.0 -
04/08:30am 15.9 11.6 7.1 56 4.4 SW 19 24 10 13 1020.4 1020.1 -
04/08:00am 14.5 11.3 6.8 60 3.8 WSW 13 20 7 11 1020.1 1019.8 -
04/07:30am 13.0 10.6 6.8 66 3.0 WSW 9 15 5 8 1020.0 1019.7 -
04/07:00am 11.7 9.2 6.4 70 2.5 WSW 9 11 5 6 1019.6 1019.3 -
04/06:30am 10.2 7.2 6.2 76 1.9 WSW 11 13 6 7 1019.4 1019.1 -
04/06:00am 8.6 6.9 5.9 83 1.2 WSW 4 6 2 3 1018.9 1018.6 -
04/05:30am 9.7 7.5 5.5 75 1.9 SW 6 7 3 4 1018.5 1018.2 -
04/05:00am 10.4 8.6 5.2 70 2.4 W 4 4 2 2 1018.0 1017.7 -
04/04:30am 9.9 8.5 5.5 74 2.0 WSW 2 4 1 2 1017.6 1017.3 -
04/04:00am 9.7 8.0 5.9 77 1.8 SW 4 4 2 2 1017.2 1016.9 -
04/03:30am 11.2 9.0 5.5 68 2.6 WSW 6 7 3 4 1017.0 1016.7 -
04/03:00am 12.4 10.1 4.6 59 3.6 SW 6 7 3 4 1017.0 1016.7 -
04/02:30am 13.1 11.2 5.0 58 3.8 SW 4 6 2 3 1017.0 1016.7 4.0
04/02:00am 13.8 11.5 4.7 54 4.2 SW 6 7 3 4 1017.1 1016.8 4.0
04/01:30am 14.0 12.5 4.9 54 4.3 W 2 4 1 2 1017.1 1016.8 4.0
04/01:00am 14.3 12.0 4.9 53 4.4 SW 6 9 3 5 1017.2 1016.9 4.0
04/12:30am 15.4 12.6 5.0 50 4.9 SW 9 11 5 6 1017.3 1017.0 4.0
04/12:00am 16.3 13.4 4.7 46 5.5 SSW 9 15 5 8 1017.5 1017.2 4.0
 
Date/Time
EST
Temp
°C
App
Temp
°C
Dew
Point
Rel
Hum
%
Delta-T
°C
Wind Press
QNH
hPa
Press
MSL
hPa
Rain
since 9 am
mm
Dir
 
Spd
km/h
Gust
km/h
Spd
kts
Gust
kts
03/11:30pm 16.2 13.7 4.9 47 5.4 S 7 11 4 6 1017.3 1017.0 4.0
03/11:00pm 16.7 13.4 4.7 45 5.7 SSW 11 15 6 8 1017.1 1016.8 4.0
03/10:30pm 17.9 13.4 4.1 40 6.5 SSW 17 24 9 13 1016.9 1016.6 4.0
03/10:00pm 18.3 14.5 4.1 39 6.7 SSW 13 20 7 11 1016.8 1016.5 4.0
03/09:30pm 18.2 14.5 4.4 40 6.6 SW 13 19 7 10 1016.4 1016.1 4.0
03/09:00pm 18.3 15.0 4.5 40 6.6 SW 11 17 6 9 1016.0 1015.7 4.0
03/08:30pm 18.8 15.7 3.8 37 7.1 SW 9 13 5 7 1015.8 1015.5 4.0
03/08:00pm 18.8 15.7 3.8 37 7.1 SW 9 15 5 8 1015.4 1015.0 4.0
03/07:30pm 18.6 16.0 3.3 36 7.2 WSW 6 11 3 6 1015.0 1014.6 4.0
03/07:00pm 19.6 16.9 2.5 32 8.0 WSW 6 7 3 4 1014.5 1014.1 4.0
03/06:30pm 20.6 17.1 1.5 28 8.8 WSW 9 11 5 6 1013.9 1013.6 4.0
03/06:00pm 22.1 17.7 0.6 24 9.8 WSW 13 19 7 10 1013.5 1013.2 4.0
03/05:30pm 23.1 17.3 -0.4 21 10.6 WSW 20 32 11 17 1012.8 1012.5 4.0
03/05:00pm 24.6 18.6 -1.3 18 11.7 WSW 20 35 11 19 1012.3 1012.0 4.0
03/04:30pm 25.7 18.8 -2.8 15 12.6 WSW 24 37 13 20 1011.7 1011.4 4.0
03/04:00pm 26.3 19.1 -2.4 15 12.8 W 26 41 14 22 1011.3 1011.0 4.0
03/03:40pm 26.6 19.4 0.4 18 12.4 W 28 46 15 25 1011.1 1010.8 4.0
03/03:30pm 26.4 21.6 4.8 25 11.0 W 19 28 10 15 1011.0 1010.7 4.0
03/03:00pm 26.1 20.6 5.7 27 10.6 W 24 35 13 19 1010.9 1010.6 4.0
03/02:30pm 25.8 20.9 6.9 30 10.0 W 22 35 12 19 1011.1 1010.8 4.0
03/02:00pm 26.3 21.5 8.8 33 9.6 WSW 24 39 13 21 1011.3 1011.0 4.0
03/01:30pm 26.3 21.8 10.0 36 9.1 WSW 24 37 13 20 1011.3 1011.0 4.0
03/01:00pm 25.5 21.3 9.7 37 8.7 W 22 35 12 19 1011.4 1011.1 4.0
03/12:30pm 25.1 21.2 10.9 41 8.0 W 22 33 12 18 1011.6 1011.3 4.0
03/12:00pm 24.8 21.9 14.0 51 6.4 WSW 22 33 12 18 1012.1 1011.8 4.0
03/11:30am 22.9 18.9 13.1 54 5.7 WSW 26 39 14 21 1012.8 1012.5 4.0
03/11:00am 22.7 21.0 14.8 61 4.7 W 17 32 9 17 1013.3 1013.0 4.0
03/10:30am 22.5 24.0 18.9 80 2.3 NNW 9 15 5 8 1013.5 1013.2 4.0
03/10:00am 21.3 21.8 18.3 83 1.9 NNW 13 19 7 10 1014.0 1013.7 4.0
03/09:30am 20.1 22.2 19.3 95 0.5 N 7 17 4 9 1014.0 1013.7 3.4
03/09:00am 19.6 21.2 18.3 92 0.8 WSW 7 13 4 7 1014.0 1013.7 2.6
03/08:30am 20.2 22.0 18.3 89 1.2 N 6 7 3 4 1014.3 1013.9 1.6
03/08:00am 20.5 22.2 18.6 89 1.2 NNE 7 11 4 6 1013.9 1013.6 1.4
03/07:30am 19.1 21.3 18.3 95 0.5 NNE 4 9 2 5 1014.1 1013.8 1.4
03/07:00am 18.7 20.8 18.2 97 0.3 ENE 4 6 2 3 1013.4 1013.1 1.4
03/06:30am 17.6 19.0 17.3 98 0.2 ENE 6 7 3 4 1013.5 1013.2 1.4
03/06:00am 17.3 18.9 17.0 98 0.2 NNE 4 6 2 3 1013.6 1013.3 1.2
03/05:30am 17.3 19.3 17.0 98 0.2 ESE 2 4 1 2 1013.4 1013.1 1.2
03/05:00am 17.3 18.9 16.8 97 0.3 S 4 6 2 3 1013.1 1012.8 1.2
03/04:30am 17.6 19.9 16.8 95 0.5 CALM 0 2 0 1 1012.9 1012.6 1.2
03/04:00am 17.8 19.1 17.2 96 0.4 E 6 9 3 5 1012.7 1012.4 1.2
03/03:30am 17.9 19.1 17.3 96 0.4 NE 7 13 4 7 1013.0 1012.7 1.2
03/03:00am 17.9 19.1 16.9 94 0.6 NNE 6 9 3 5 1013.6 1013.3 1.0
03/02:30am 18.0 18.7 17.0 94 0.6 ENE 9 13 5 7 1013.6 1013.3 1.0
03/02:00am 18.2 19.2 16.9 92 0.8 SE 7 9 4 5 1014.4 1014.0 1.0
03/01:30am 18.9 19.0 16.5 86 1.4 SSW 11 20 6 11 1015.4 1015.0 0.0
03/01:00am 18.5 19.2 16.1 86 1.4 NE 7 11 4 6 1013.8 1013.5 0.0
03/12:30am 18.5 18.1 16.3 87 1.3 NE 13 19 7 10 1013.4 1013.1 0.0
03/12:00am 18.6 17.8 16.0 85 1.6 ENE 15 19 8 10 1014.5 1014.1 0.0
 
Date/Time
EST
Temp
°C
App
Temp
°C
Dew
Point
Rel
Hum
%
Delta-T
°C
Wind Press
QNH
hPa
Press
MSL
hPa
Rain
since 9 am
mm
Dir
 
Spd
km/h
Gust
km/h
Spd
kts
Gust
kts
02/11:30pm 18.6 19.7 15.7 83 1.7 E 4 6 2 3 1015.4 1015.0 0.0
02/11:00pm 18.8 18.9 15.5 81 2.0 ENE 9 13 5 7 1015.3 1014.9 0.0
02/10:30pm 19.0 19.0 15.3 79 2.2 NE 9 13 5 7 1015.5 1015.1 0.0
02/10:00pm 19.1 18.3 15.2 78 2.3 NE 13 19 7 10 1015.0 1014.6 0.0
02/09:30pm 19.1 18.7 15.2 78 2.3 NE 11 17 6 9 1014.9 1014.5 0.0
02/09:00pm 19.2 17.9 14.9 76 2.5 NE 15 19 8 10 1014.7 1014.3 0.0
02/08:30pm 19.6 18.2 14.6 73 2.9 NE 15 22 8 12 1014.9 1014.5 0.0
02/08:00pm 20.3 19.0 14.7 70 3.3 NE 15 22 8 12 1014.9 1014.5 0.0
02/07:30pm 20.6 18.7 14.3 67 3.7 NE 17 24 9 13 1014.4 1014.0 0.0
02/07:00pm 21.1 19.5 14.0 64 4.1 NE 15 24 8 13 1014.4 1014.0 0.0
02/06:30pm 21.9 19.4 13.5 59 4.9 NE 19 24 10 13 1013.8 1013.5 0.0
02/06:00pm 22.9 20.0 12.2 51 6.1 NE 19 26 10 14 1013.7 1013.4 0.0

Other Formats:

Comma delimited format used in spreadsheet applications
http://www.bom.gov.au/fwo/IDQ60801/IDQ60801.95543.axf

JavaScript Object Notation format (JSON) in row-major order
http://www.bom.gov.au/fwo/IDQ60801/IDQ60801.95543.json